»·PEaware :: N210AR KSDM-KCRQ

N210AR :: KSDM-KCRQ

FLIGHT INFORMATION

Flight Status: Arrived
Operator: Privately registered:
United States
More flights under this callsign
Pilot: Max S. (16657)
Aircraft: CESSNA 172 SKYHAWK
(C172)
More flights by this aircraft type
Origin: KSDM Brown Mun
United States
Destination: KCRQ McClellan-Palomar
United States
More flights between these airports :: More routes between these airports
Route: +KSAN
File this flight plan on PilotEdge
Remarks: ksan northbound corridor
Altitude:
(Current/Filed)
4,500ft
Speed:
(Current/Filed)
100kts
Departed: 20-Aug-20 08:28 AM
Arrived: 20-Aug-20 08:56 AM
Distance/Time
Traveled:
36nm/0:28
Distance/Time
To Go:
Arrived

Flight Plot

Page will automatically refresh every two minutes.

Flight plan parsing failed; only flown route is shown


Map Options




Map Legend


Flown Route
Filed Route
Departure Airport
Arrival Airport
Navaid (VOR, NDB)
Fix

Horizontal Profiles

Position Reports

Time Latitude Longitude Heading Altitude Ground
Speed
20-Aug-20 08:09 32.570327 -116.987548 359 523ft 0kts
20-Aug-20 08:10 32.570327 -116.987548 359 523ft 0kts
20-Aug-20 08:11 32.570327 -116.987548 359 523ft 0kts
20-Aug-20 08:12 32.570327 -116.987548 359 523ft 0kts
20-Aug-20 08:13 32.570327 -116.987548 359 523ft 0kts
20-Aug-20 08:14 32.570327 -116.987548 359 523ft 0kts
20-Aug-20 08:15 32.570327 -116.987548 359 523ft 0kts
20-Aug-20 08:16 32.570327 -116.987548 359 523ft 0kts
20-Aug-20 08:17 32.570327 -116.987548 359 523ft 0kts
20-Aug-20 08:18 32.570327 -116.987548 359 523ft 0kts
20-Aug-20 08:19 32.570327 -116.987548 359 523ft 0kts
20-Aug-20 08:20 32.570327 -116.987548 359 523ft 0kts
20-Aug-20 08:21 32.571116 -116.987324 55 526ft 7kts
20-Aug-20 08:22 32.570544 -116.982882 95 522ft 17kts
20-Aug-20 08:23 32.570007 -116.976607 94 511ft 20kts
20-Aug-20 08:24 32.569502 -116.970432 95 511ft 17kts
20-Aug-20 08:25 32.570442 -116.968361 8 511ft 7kts
20-Aug-20 08:26 32.570655 -116.968321 9 511ft 0kts
20-Aug-20 08:27 32.572304 -116.974632 276 600ft 77kts
20-Aug-20 08:28 32.573116 -116.999288 271 1708ft 74kts
20-Aug-20 08:29 32.572317 -117.023675 263 2729ft 72kts
20-Aug-20 08:30 32.568856 -117.046810 252 3635ft 75kts
20-Aug-20 08:31 32.566675 -117.071915 267 4505ft 77kts
20-Aug-20 08:32 32.585227 -117.092511 345 4624ft 127kts
20-Aug-20 08:33 32.617907 -117.102343 342 4612ft 117kts
20-Aug-20 08:34 32.647414 -117.117984 328 4622ft 117kts
20-Aug-20 08:36 32.674050 -117.140400 322 4614ft 117kts
20-Aug-20 08:37 32.703355 -117.156863 346 4626ft 116kts
20-Aug-20 08:38 32.734320 -117.167422 338 4652ft 116kts
20-Aug-20 08:39 32.763476 -117.184049 332 4677ft 116kts
20-Aug-20 08:40 32.789961 -117.205951 311 4641ft 118kts
20-Aug-20 08:41 32.812867 -117.233805 318 4642ft 117kts
20-Aug-20 08:42 32.842449 -117.248781 350 4640ft 116kts
20-Aug-20 08:43 32.874712 -117.253238 348 4645ft 116kts
20-Aug-20 08:44 32.906832 -117.258104 356 4682ft 115kts
20-Aug-20 08:45 32.938359 -117.264162 345 4721ft 115kts
20-Aug-20 08:46 32.969244 -117.272499 349 4348ft 120kts
20-Aug-20 08:47 32.997546 -117.278401 351 3396ft 100kts
20-Aug-20 08:48 33.024528 -117.281623 354 2617ft 95kts
20-Aug-20 08:49 33.051023 -117.280588 14 2306ft 93kts
20-Aug-20 08:49 33.072338 -117.275790 352 2057ft 93kts
20-Aug-20 08:51 33.099389 -117.281418 350 2121ft 85kts
20-Aug-20 08:52 33.109695 -117.262498 88 2089ft 75kts
20-Aug-20 08:52 33.109813 -117.241812 59 1639ft 69kts
20-Aug-20 08:53 33.126845 -117.244011 315 973ft 59kts
20-Aug-20 08:55 33.130629 -117.265042 262 580ft 61kts
20-Aug-20 08:55 33.128672 -117.277656 256 319ft 21kts
20-Aug-20 08:56 33.127600 -117.279870 224 318ft 0kts
20-Aug-20 08:58 33.127545 -117.279147 74 319ft 8kts
20-Aug-20 08:58 33.127971 -117.276396 123 323ft 7kts
20-Aug-20 08:59 33.127357 -117.275823 78 326ft 0kts

Navigation Log

Ident Type
Flight plan parsing failed, navigation log unavailable